createdAt,value
2018-02-22T00:00:35.642Z,7.70
2018-02-22T00:01:36.195Z,7.60
2018-02-22T00:02:36.768Z,7.80
2018-02-22T00:03:37.360Z,7.80
2018-02-22T00:04:37.931Z,7.80
2018-02-22T00:05:38.492Z,7.60
2018-02-22T00:06:39.064Z,7.60
2018-02-22T00:07:39.634Z,7.60
2018-02-22T00:08:40.198Z,7.60
2018-02-22T00:09:40.780Z,7.50
2018-02-22T00:10:41.374Z,7.50
2018-02-22T00:11:41.996Z,7.70
2018-02-22T00:12:42.576Z,8.00
2018-02-22T00:13:43.150Z,7.50
2018-02-22T00:14:43.720Z,8.10
2018-02-22T00:15:44.304Z,8.30
2018-02-22T00:16:44.865Z,7.20
2018-02-22T00:17:45.436Z,8.40
2018-02-22T00:18:46.064Z,7.70
2018-02-22T00:19:46.641Z,7.90
2018-02-22T00:20:47.228Z,7.60
2018-02-22T00:21:47.800Z,7.90
2018-02-22T00:22:48.391Z,7.50
2018-02-22T00:23:48.982Z,7.40
2018-02-22T00:24:49.577Z,8.10
2018-02-22T00:25:50.203Z,7.30
2018-02-22T00:26:50.787Z,8.20
2018-02-22T00:27:51.364Z,7.90
2018-02-22T00:28:51.962Z,8.20
2018-02-22T00:29:52.544Z,7.80
2018-02-22T00:30:53.118Z,7.60
2018-02-22T00:31:53.709Z,7.70
2018-02-22T00:32:54.281Z,7.50
2018-02-22T00:33:54.860Z,7.30
2018-02-22T00:34:55.495Z,7.90
2018-02-22T00:35:56.076Z,7.80
2018-02-22T00:36:56.658Z,7.70
2018-02-22T00:37:57.259Z,7.80
2018-02-22T00:38:57.849Z,8.00
2018-02-22T00:39:58.431Z,7.60
2018-02-22T00:40:59.013Z,7.80
2018-02-22T00:41:59.599Z,7.60
2018-02-22T00:43:00.183Z,7.60
2018-02-22T00:44:00.756Z,8.30
2018-02-22T00:45:01.332Z,7.90
2018-02-22T00:46:01.916Z,7.90
2018-02-22T00:47:02.495Z,7.90
2018-02-22T00:48:03.064Z,7.60
2018-02-22T00:49:03.664Z,7.90
2018-02-22T00:50:04.233Z,7.40
2018-02-22T00:51:04.808Z,7.60
2018-02-22T00:52:05.382Z,7.50
2018-02-22T00:53:05.960Z,8.10
2018-02-22T00:54:06.533Z,7.60
2018-02-22T00:55:07.124Z,7.90
2018-02-22T00:56:07.711Z,7.70
2018-02-22T00:57:08.280Z,8.00
2018-02-22T00:58:08.862Z,7.70
2018-02-22T00:59:09.463Z,7.80
2018-02-22T01:00:10.184Z,7.60
2018-02-22T01:01:10.753Z,8.00
2018-02-22T01:02:11.328Z,7.40
2018-02-22T01:03:11.915Z,7.50
2018-02-22T01:04:12.497Z,7.90
2018-02-22T01:05:13.093Z,7.70
2018-02-22T01:06:13.768Z,7.80
2018-02-22T01:07:14.342Z,8.10
2018-02-22T01:08:14.908Z,7.70
2018-02-22T01:09:15.501Z,8.00
2018-02-22T01:10:16.074Z,7.70
2018-02-22T01:11:16.648Z,8.00
2018-02-22T01:12:17.230Z,7.60
2018-02-22T01:13:17.816Z,7.30
2018-02-22T01:14:18.427Z,8.20
2018-02-22T01:15:19.010Z,7.40
2018-02-22T01:16:19.597Z,7.60
2018-02-22T01:17:20.175Z,7.80
2018-02-22T01:18:20.735Z,7.90
2018-02-22T01:19:21.336Z,7.70
2018-02-22T01:20:21.914Z,7.40
2018-02-22T01:21:22.499Z,7.60
2018-02-22T01:22:23.064Z,7.60
2018-02-22T01:23:23.632Z,8.10
2018-02-22T01:24:24.210Z,7.80
2018-02-22T01:25:24.804Z,7.90
2018-02-22T01:26:25.375Z,7.60
2018-02-22T01:27:25.996Z,7.70
2018-02-22T01:28:26.563Z,7.90
2018-02-22T01:29:27.132Z,7.50
2018-02-22T01:30:27.710Z,7.80
2018-02-22T01:31:28.284Z,7.60
2018-02-22T01:32:28.870Z,7.80
2018-02-22T01:33:29.438Z,8.10
2018-02-22T01:34:30.037Z,7.60
2018-02-22T01:35:30.612Z,7.80
2018-02-22T01:36:31.196Z,7.70
2018-02-22T01:37:31.774Z,7.90
2018-02-22T01:38:32.347Z,7.70
2018-02-22T01:39:32.970Z,7.70
2018-02-22T01:40:33.547Z,8.20
2018-02-22T01:41:34.113Z,7.90
2018-02-22T01:42:34.686Z,8.00
2018-02-22T01:43:35.272Z,7.80
2018-02-22T01:44:35.850Z,7.70
2018-02-22T01:45:36.579Z,7.30
2018-02-22T01:46:37.173Z,7.70
2018-02-22T01:47:37.748Z,7.80
2018-02-22T01:48:38.323Z,7.50
2018-02-22T01:49:38.923Z,7.60
2018-02-22T01:50:39.494Z,7.50
2018-02-22T01:51:40.086Z,7.70
2018-02-22T01:52:40.713Z,7.60
2018-02-22T01:53:41.295Z,8.00
2018-02-22T01:54:41.921Z,7.60
2018-02-22T01:55:42.524Z,7.50
2018-02-22T01:56:43.096Z,7.60
2018-02-22T01:57:43.664Z,8.00
2018-02-22T01:58:44.230Z,7.70
2018-02-22T01:59:44.801Z,7.40
2018-02-22T02:00:45.373Z,7.50
2018-02-22T02:01:45.947Z,7.30
2018-02-22T02:02:46.523Z,7.80
2018-02-22T02:03:47.103Z,7.90
2018-02-22T02:04:47.703Z,7.20
2018-02-22T02:05:48.282Z,7.40
2018-02-22T02:06:48.852Z,7.90
2018-02-22T02:07:49.430Z,7.20
2018-02-22T02:08:50.012Z,8.00
2018-02-22T02:09:50.667Z,7.70
2018-02-22T02:10:51.245Z,7.30
2018-02-22T02:11:51.829Z,7.40
2018-02-22T02:12:52.409Z,7.60
2018-02-22T02:13:52.976Z,7.80
2018-02-22T02:14:53.551Z,7.50
2018-02-22T02:15:54.152Z,7.70
2018-02-22T02:16:54.735Z,7.40
2018-02-22T02:17:55.329Z,7.70
2018-02-22T02:18:55.891Z,7.30
2018-02-22T02:19:56.456Z,7.40
2018-02-22T02:20:57.029Z,7.50
2018-02-22T02:21:57.600Z,7.40
2018-02-22T02:22:58.188Z,7.80
2018-02-22T02:23:58.782Z,7.60
2018-02-22T02:24:59.382Z,7.30
2018-02-22T02:25:59.987Z,7.50
2018-02-22T02:27:00.581Z,7.80
2018-02-22T02:28:01.209Z,7.90
2018-02-22T02:29:01.789Z,7.70
2018-02-22T02:30:02.377Z,7.40
2018-02-22T02:31:02.986Z,7.50
2018-02-22T02:32:13.535Z,8.00
2018-02-22T02:33:14.112Z,8.00
2018-02-22T02:34:14.681Z,7.50
2018-02-22T02:35:15.266Z,7.70
2018-02-22T02:36:15.848Z,7.60
2018-02-22T02:37:16.434Z,7.70
2018-02-22T02:38:17.021Z,7.60
2018-02-22T02:39:17.603Z,7.00
2018-02-22T02:40:18.179Z,7.60
2018-02-22T02:41:18.772Z,7.50
2018-02-22T02:42:19.346Z,7.40
2018-02-22T02:43:20.010Z,7.80
2018-02-22T02:44:20.586Z,7.30
2018-02-22T02:45:21.219Z,7.50
2018-02-22T02:46:21.857Z,7.60
2018-02-22T02:47:22.438Z,7.60
2018-02-22T02:48:23.014Z,7.50
2018-02-22T02:49:23.591Z,7.50
2018-02-22T02:50:24.168Z,7.50
2018-02-22T02:51:24.740Z,7.90
2018-02-22T02:52:25.316Z,7.80
2018-02-22T02:53:25.902Z,7.30
2018-02-22T02:54:26.477Z,7.60
2018-02-22T02:55:27.066Z,7.30
2018-02-22T02:56:27.633Z,7.20
2018-02-22T02:57:28.191Z,7.40
2018-02-22T02:58:28.766Z,7.90
2018-02-22T02:59:29.345Z,7.30
2018-02-22T03:00:29.927Z,7.40
2018-02-22T03:01:30.495Z,7.20
2018-02-22T03:02:31.083Z,7.40
2018-02-22T03:03:31.674Z,7.50
2018-02-22T03:04:32.246Z,7.50
2018-02-22T03:05:32.842Z,7.20
2018-02-22T03:06:33.436Z,6.90
2018-02-22T03:07:34.014Z,7.80
2018-02-22T03:08:34.646Z,7.50
2018-02-22T03:09:35.213Z,7.60
2018-02-22T03:10:35.808Z,7.40
2018-02-22T03:11:36.394Z,7.30
2018-02-22T03:12:36.963Z,7.60
2018-02-22T03:13:37.538Z,7.40
2018-02-22T03:14:38.125Z,7.70
2018-02-22T03:15:38.709Z,7.20
2018-02-22T03:16:39.302Z,7.30
2018-02-22T03:17:39.882Z,7.60
2018-02-22T03:18:40.457Z,7.50
2018-02-22T03:19:41.028Z,7.40
2018-02-22T03:20:41.646Z,7.20
2018-02-22T03:21:42.263Z,7.70
2018-02-22T03:22:42.839Z,7.30
2018-02-22T03:23:43.418Z,7.20
2018-02-22T03:24:43.986Z,7.60
2018-02-22T03:25:44.583Z,6.80
2018-02-22T03:26:45.203Z,7.10
2018-02-22T03:27:45.773Z,7.60
2018-02-22T03:28:46.351Z,7.50
2018-02-22T03:29:46.917Z,7.30
2018-02-22T03:30:47.506Z,7.40
2018-02-22T03:31:48.088Z,7.40
2018-02-22T03:32:48.674Z,7.30
2018-02-22T03:33:49.251Z,7.50
2018-02-22T03:34:49.830Z,7.00
2018-02-22T03:35:50.430Z,7.50
2018-02-22T03:36:51.009Z,7.30
2018-02-22T03:37:51.578Z,7.40
2018-02-22T03:38:52.136Z,7.40
2018-02-22T03:39:52.708Z,7.50
2018-02-22T03:40:53.310Z,7.10
2018-02-22T03:41:53.884Z,7.70
2018-02-22T03:42:54.483Z,7.50
2018-02-22T03:43:55.056Z,7.80
2018-02-22T03:44:55.631Z,7.20
2018-02-22T03:45:56.199Z,7.20
2018-02-22T03:46:56.770Z,7.30
2018-02-22T03:47:57.358Z,7.50
2018-02-22T03:48:57.933Z,7.10
2018-02-22T03:49:58.586Z,7.40
2018-02-22T03:50:59.184Z,7.50
2018-02-22T03:51:59.769Z,7.20
2018-02-22T03:53:00.403Z,6.70
2018-02-22T03:54:00.987Z,7.80
2018-02-22T03:55:01.551Z,7.70
2018-02-22T03:56:02.139Z,7.10
2018-02-22T03:57:02.726Z,7.60
2018-02-22T03:58:03.285Z,7.60
2018-02-22T03:59:03.860Z,7.30
2018-02-22T04:00:04.436Z,7.20
2018-02-22T04:01:05.024Z,7.40
2018-02-22T04:02:05.642Z,7.70
2018-02-22T04:03:06.202Z,7.30
2018-02-22T04:04:06.804Z,6.80
2018-02-22T04:05:07.433Z,7.30
2018-02-22T04:06:08.028Z,7.10
2018-02-22T04:07:08.604Z,6.90
2018-02-22T04:08:09.180Z,7.40
2018-02-22T04:09:09.776Z,7.60
2018-02-22T04:10:10.377Z,7.60
2018-02-22T04:11:10.965Z,7.10
2018-02-22T04:12:11.539Z,7.30
2018-02-22T04:13:12.164Z,7.00
2018-02-22T04:14:12.763Z,7.20
2018-02-22T04:15:13.348Z,6.80
2018-02-22T04:16:13.925Z,7.30
2018-02-22T04:17:14.495Z,7.20
2018-02-22T04:18:15.126Z,7.20
2018-02-22T04:19:15.701Z,7.40
2018-02-22T04:20:16.266Z,7.50
2018-02-22T04:21:16.848Z,7.80
2018-02-22T04:22:17.451Z,7.00
2018-02-22T04:23:18.035Z,7.20
2018-02-22T04:24:18.611Z,7.40
2018-02-22T04:25:19.193Z,7.40
2018-02-22T04:26:19.780Z,7.20
2018-02-22T04:27:20.366Z,7.10
2018-02-22T04:28:20.978Z,7.50
2018-02-22T04:29:21.549Z,7.00
2018-02-22T04:30:22.134Z,7.20
2018-02-22T04:31:22.705Z,7.30
2018-02-22T04:32:23.276Z,6.90
2018-02-22T04:33:23.847Z,7.10
2018-02-22T04:34:24.439Z,7.40
2018-02-22T04:35:25.016Z,7.10
2018-02-22T04:36:25.607Z,7.00
2018-02-22T04:37:26.175Z,7.20
2018-02-22T04:38:26.763Z,7.30
2018-02-22T04:39:27.350Z,7.00
2018-02-22T04:40:27.924Z,7.20
2018-02-22T04:41:28.495Z,7.00
2018-02-22T04:42:29.077Z,7.20
2018-02-22T04:43:29.700Z,7.00
2018-02-22T04:44:30.275Z,7.10
2018-02-22T04:45:30.974Z,7.10
2018-02-22T04:46:31.579Z,6.90
2018-02-22T04:47:32.169Z,7.00
2018-02-22T04:48:32.759Z,7.60
2018-02-22T04:49:33.360Z,7.20
2018-02-22T04:50:33.949Z,7.10
2018-02-22T04:51:34.530Z,7.00
2018-02-22T04:52:35.124Z,7.40
2018-02-22T04:53:35.754Z,7.30
2018-02-22T04:54:36.329Z,7.70
2018-02-22T04:55:36.925Z,7.40
2018-02-22T04:56:37.550Z,7.70
2018-02-22T04:57:38.146Z,7.20
2018-02-22T04:58:38.747Z,7.00
2018-02-22T04:59:39.322Z,7.30
2018-02-22T05:00:39.888Z,6.50
2018-02-22T05:01:40.460Z,7.30
2018-02-22T05:02:41.030Z,7.00
2018-02-22T05:03:41.600Z,7.20
2018-02-22T05:04:42.180Z,7.50
2018-02-22T05:05:42.831Z,7.10
2018-02-22T05:06:43.456Z,7.40
2018-02-22T05:07:44.030Z,7.20
2018-02-22T05:08:44.596Z,7.10
2018-02-22T05:09:45.177Z,7.00
2018-02-22T05:10:45.752Z,7.40
2018-02-22T05:11:46.337Z,6.80
2018-02-22T05:12:46.910Z,7.20
2018-02-22T05:13:47.506Z,7.10
2018-02-22T05:14:48.078Z,7.40
2018-02-22T05:15:48.640Z,7.20
2018-02-22T05:16:49.217Z,7.80
2018-02-22T05:17:49.822Z,7.50
2018-02-22T05:18:50.416Z,7.10
2018-02-22T05:19:50.981Z,7.10
2018-02-22T05:20:51.556Z,7.20
2018-02-22T05:21:52.132Z,7.20
2018-02-22T05:22:52.723Z,7.00
2018-02-22T05:23:53.301Z,7.00
2018-02-22T05:24:53.910Z,7.00
2018-02-22T05:25:54.493Z,7.30
2018-02-22T05:26:55.110Z,7.20
2018-02-22T05:27:55.679Z,7.10
2018-02-22T05:28:56.310Z,6.90
2018-02-22T05:29:56.893Z,7.10
2018-02-22T05:30:57.488Z,7.70
2018-02-22T05:31:58.085Z,7.20
2018-02-22T05:32:58.664Z,6.80
2018-02-22T05:33:59.234Z,6.90
2018-02-22T05:34:59.798Z,6.90
2018-02-22T05:36:00.359Z,6.90
2018-02-22T05:37:00.954Z,6.90
2018-02-22T05:38:01.531Z,6.90
2018-02-22T05:39:02.108Z,7.10
2018-02-22T05:40:02.748Z,7.00
2018-02-22T05:41:03.326Z,7.10
2018-02-22T05:42:03.899Z,6.90
2018-02-22T05:43:04.477Z,7.10
2018-02-22T05:44:05.057Z,6.70
2018-02-22T05:45:05.632Z,6.80
2018-02-22T05:46:06.210Z,6.70
2018-02-22T05:47:06.907Z,6.70
2018-02-22T05:48:07.478Z,6.80
2018-02-22T05:49:08.040Z,7.00
2018-02-22T05:50:08.620Z,6.90
2018-02-22T05:51:09.200Z,7.10
2018-02-22T05:52:09.775Z,6.90
2018-02-22T05:53:10.366Z,7.30
2018-02-22T05:54:10.928Z,6.80
2018-02-22T05:55:11.536Z,7.30
2018-02-22T05:56:12.117Z,7.00
2018-02-22T05:57:12.736Z,7.30
2018-02-22T05:58:13.313Z,7.10
2018-02-22T05:59:13.880Z,7.20
2018-02-22T06:00:14.514Z,7.50
2018-02-22T06:01:15.082Z,7.00
2018-02-22T06:02:15.676Z,7.10
2018-02-22T06:03:16.268Z,7.20
2018-02-22T06:04:16.852Z,6.70
2018-02-22T06:05:17.437Z,7.10
2018-02-22T06:06:18.008Z,7.00
2018-02-22T06:07:18.651Z,7.40
2018-02-22T06:08:19.245Z,6.70
2018-02-22T06:09:19.879Z,7.00
2018-02-22T06:10:20.465Z,7.10
2018-02-22T06:11:21.054Z,7.30
2018-02-22T06:12:21.634Z,7.00
2018-02-22T06:13:22.209Z,6.60
2018-02-22T06:14:22.773Z,7.20
2018-02-22T06:15:23.468Z,7.20
2018-02-22T06:16:24.066Z,6.90
2018-02-22T06:17:24.705Z,7.00
2018-02-22T06:18:25.275Z,6.90
2018-02-22T06:19:25.861Z,6.70
2018-02-22T06:20:26.540Z,6.90
2018-02-22T06:21:27.122Z,6.90
2018-02-22T06:22:27.722Z,7.00
2018-02-22T06:23:28.304Z,6.60
2018-02-22T06:24:28.887Z,6.90
2018-02-22T06:25:29.475Z,7.00
2018-02-22T06:26:30.050Z,7.20
2018-02-22T06:27:30.641Z,7.00
2018-02-22T06:28:31.218Z,6.80
2018-02-22T06:29:31.794Z,6.60
2018-02-22T06:30:32.376Z,6.70
2018-02-22T06:31:32.960Z,6.80
2018-02-22T06:32:33.557Z,6.90
2018-02-22T06:33:34.121Z,6.80
2018-02-22T06:34:34.702Z,7.20
2018-02-22T06:35:35.259Z,7.10
2018-02-22T06:36:35.858Z,6.90
2018-02-22T06:37:36.446Z,7.40
2018-02-22T06:38:37.034Z,7.40
2018-02-22T06:39:37.614Z,7.00
2018-02-22T06:40:38.202Z,6.90
2018-02-22T06:41:38.777Z,7.20
2018-02-22T06:42:39.362Z,7.00
2018-02-22T06:43:39.940Z,6.90
2018-02-22T06:44:40.518Z,7.40
2018-02-22T06:45:41.082Z,7.30
2018-02-22T06:46:41.658Z,6.90
2018-02-22T06:47:42.353Z,6.90
2018-02-22T06:48:42.922Z,6.60
2018-02-22T06:49:43.512Z,6.90
2018-02-22T06:50:44.110Z,6.90
2018-02-22T06:51:44.680Z,7.30
2018-02-22T06:52:45.269Z,7.20
2018-02-22T06:53:45.849Z,7.50
2018-02-22T06:54:46.411Z,6.90
2018-02-22T06:55:46.988Z,6.70
2018-02-22T06:56:47.567Z,7.00
2018-02-22T06:57:48.150Z,6.80
2018-02-22T06:58:48.728Z,6.90
2018-02-22T06:59:49.334Z,6.90
2018-02-22T07:00:49.914Z,7.40
2018-02-22T07:01:50.505Z,7.00
2018-02-22T07:02:51.083Z,7.00
2018-02-22T07:03:51.666Z,6.70
2018-02-22T07:04:52.243Z,7.30
2018-02-22T07:05:52.829Z,6.90
2018-02-22T07:06:53.406Z,7.40
2018-02-22T07:07:53.985Z,7.20
2018-02-22T07:08:54.552Z,7.00
2018-02-22T07:09:55.128Z,7.00
2018-02-22T07:10:55.699Z,6.70
2018-02-22T07:11:56.270Z,6.90
2018-02-22T07:12:56.869Z,6.70
2018-02-22T07:13:57.445Z,6.30
2018-02-22T07:14:58.089Z,7.10
2018-02-22T07:15:58.653Z,7.00
2018-02-22T07:16:59.227Z,6.50
2018-02-22T07:17:59.820Z,6.70
2018-02-22T07:19:00.413Z,6.80
2018-02-22T07:20:01.002Z,6.60
2018-02-22T07:21:01.586Z,7.20
2018-02-22T07:22:02.173Z,6.90
2018-02-22T07:23:02.760Z,6.70
2018-02-22T07:24:03.328Z,7.10
2018-02-22T07:25:03.911Z,6.40
2018-02-22T07:26:04.477Z,6.60
2018-02-22T07:27:05.041Z,6.20
2018-02-22T07:28:05.635Z,6.50
2018-02-22T07:29:06.221Z,6.60
2018-02-22T07:30:06.798Z,6.70
2018-02-22T07:31:07.372Z,6.60
2018-02-22T07:32:07.940Z,7.20
2018-02-22T07:33:08.527Z,6.90
2018-02-22T07:34:09.136Z,6.80
2018-02-22T07:35:09.715Z,6.40
2018-02-22T07:36:10.289Z,6.60
2018-02-22T07:37:10.865Z,6.20
2018-02-22T07:38:11.467Z,6.50
2018-02-22T07:39:12.039Z,6.60
2018-02-22T07:40:12.603Z,6.40
2018-02-22T07:41:13.217Z,6.90
2018-02-22T07:42:13.798Z,6.50
2018-02-22T07:43:14.432Z,6.90
2018-02-22T07:44:15.019Z,7.10
2018-02-22T07:45:15.593Z,6.60
2018-02-22T07:46:16.167Z,6.30
2018-02-22T07:47:16.736Z,6.70
2018-02-22T07:48:17.302Z,6.60
2018-02-22T07:49:17.880Z,6.40
2018-02-22T07:50:18.445Z,6.50
2018-02-22T07:51:19.018Z,6.50
2018-02-22T07:52:19.598Z,6.50
2018-02-22T07:53:20.188Z,6.60
2018-02-22T07:54:20.774Z,6.60
2018-02-22T07:55:21.339Z,6.70
2018-02-22T07:56:21.911Z,6.90
2018-02-22T07:57:22.493Z,6.70
2018-02-22T07:58:23.098Z,6.30
2018-02-22T07:59:23.691Z,6.40
2018-02-22T08:00:24.301Z,6.60
2018-02-22T08:01:24.871Z,6.70
2018-02-22T08:02:25.449Z,6.80
2018-02-22T08:03:26.062Z,6.70
2018-02-22T08:04:26.624Z,6.80
2018-02-22T08:05:27.210Z,6.60
2018-02-22T08:06:27.774Z,6.50
2018-02-22T08:07:28.344Z,6.30
2018-02-22T08:08:28.929Z,6.90
2018-02-22T08:09:29.489Z,6.70
2018-02-22T08:10:30.077Z,6.60
2018-02-22T08:11:30.650Z,6.20
2018-02-22T08:12:31.261Z,6.30
2018-02-22T08:13:31.856Z,5.80
2018-02-22T08:14:32.435Z,5.90
2018-02-22T08:15:33.008Z,6.30
2018-02-22T08:16:33.579Z,6.00
2018-02-22T08:17:34.173Z,6.90
2018-02-22T08:18:34.755Z,6.40
2018-02-22T08:19:35.391Z,6.20
2018-02-22T08:20:36.004Z,6.40
2018-02-22T08:21:36.572Z,6.40
2018-02-22T08:22:37.145Z,6.50
2018-02-22T08:23:37.776Z,6.30
2018-02-22T08:24:38.347Z,6.70
2018-02-22T08:25:38.910Z,6.70
2018-02-22T08:26:39.505Z,6.50
2018-02-22T08:27:40.090Z,6.30
2018-02-22T08:28:40.664Z,6.10
2018-02-22T08:29:41.244Z,6.00
2018-02-22T08:30:41.830Z,5.90
2018-02-22T08:31:42.443Z,5.90
2018-02-22T08:32:43.019Z,6.40
2018-02-22T08:33:43.592Z,6.50
2018-02-22T08:34:44.161Z,6.60
2018-02-22T08:35:44.755Z,6.40
2018-02-22T08:36:45.325Z,6.10
2018-02-22T08:37:45.910Z,6.60
2018-02-22T08:38:46.486Z,6.30
2018-02-22T08:39:47.057Z,6.40
2018-02-22T08:40:47.641Z,6.20
2018-02-22T08:41:48.209Z,6.30
2018-02-22T08:42:48.792Z,6.60
2018-02-22T08:43:49.400Z,6.60
2018-02-22T08:44:49.978Z,6.30
2018-02-22T08:45:50.548Z,6.60
2018-02-22T08:46:51.141Z,6.00
2018-02-22T08:47:51.713Z,6.30
2018-02-22T08:48:52.403Z,6.10
2018-02-22T08:49:53.035Z,6.30
2018-02-22T08:50:53.605Z,5.90
2018-02-22T08:51:54.200Z,6.10
2018-02-22T08:52:54.833Z,6.10
2018-02-22T08:53:55.459Z,6.40
2018-02-22T08:54:56.026Z,6.00
2018-02-22T08:55:56.603Z,6.10
2018-02-22T08:56:57.180Z,6.40
2018-02-22T08:57:57.760Z,6.40
2018-02-22T08:58:58.342Z,6.00
2018-02-22T08:59:58.918Z,6.30
2018-02-22T09:00:59.498Z,6.60
2018-02-22T09:02:00.076Z,6.30
2018-02-22T09:03:00.743Z,6.10
2018-02-22T09:04:01.328Z,6.40
2018-02-22T09:05:01.896Z,6.20
2018-02-22T09:06:02.477Z,6.10
2018-02-22T09:07:03.074Z,6.00
2018-02-22T09:08:03.658Z,6.10
2018-02-22T09:09:04.270Z,5.70
2018-02-22T09:10:04.859Z,6.20
2018-02-22T09:11:05.494Z,6.20
2018-02-22T09:12:06.066Z,6.20
2018-02-22T09:13:06.641Z,6.30
2018-02-22T09:14:07.222Z,6.10
2018-02-22T09:15:07.795Z,6.00
2018-02-22T09:16:08.376Z,5.80
2018-02-22T09:17:08.937Z,6.40
2018-02-22T09:18:09.507Z,6.00
2018-02-22T09:19:10.101Z,6.60
2018-02-22T09:20:10.681Z,6.20
2018-02-22T09:21:11.239Z,6.30
2018-02-22T09:22:11.808Z,6.20
2018-02-22T09:23:12.388Z,6.00
2018-02-22T09:24:12.957Z,6.00
2018-02-22T09:25:13.531Z,6.00
2018-02-22T09:26:14.188Z,6.00
2018-02-22T09:27:14.756Z,5.90
2018-02-22T09:28:15.339Z,5.90
2018-02-22T09:29:15.941Z,6.00
2018-02-22T09:30:16.573Z,5.90
2018-02-22T09:31:17.143Z,6.00
2018-02-22T09:32:17.736Z,5.90
2018-02-22T09:33:18.316Z,5.90
2018-02-22T09:34:18.916Z,5.90
2018-02-22T09:35:19.498Z,5.60
2018-02-22T09:36:20.074Z,6.00
2018-02-22T09:37:20.640Z,6.20
2018-02-22T09:38:21.234Z,6.00
2018-02-22T09:39:21.822Z,5.90
2018-02-22T09:40:22.397Z,5.90
2018-02-22T09:41:22.981Z,6.10
2018-02-22T09:42:23.556Z,5.50
2018-02-22T09:43:24.126Z,6.00
2018-02-22T09:44:24.689Z,5.90
2018-02-22T09:45:25.279Z,6.30
2018-02-22T09:46:25.885Z,5.90
2018-02-22T09:47:26.464Z,5.80
2018-02-22T09:48:27.034Z,5.60
2018-02-22T09:49:27.623Z,5.70
2018-02-22T09:50:28.241Z,6.20
2018-02-22T09:51:28.829Z,5.40
2018-02-22T09:52:29.404Z,5.50
2018-02-22T09:53:29.988Z,5.20
2018-02-22T09:54:30.578Z,5.30
2018-02-22T09:55:31.157Z,5.60
2018-02-22T09:56:31.744Z,5.60
2018-02-22T09:57:32.322Z,5.70
2018-02-22T09:58:32.899Z,5.30
2018-02-22T09:59:33.487Z,5.60
2018-02-22T10:00:34.056Z,5.90
2018-02-22T10:01:34.615Z,5.80
2018-02-22T10:02:35.211Z,5.60
2018-02-22T10:03:35.799Z,6.00
2018-02-22T10:04:36.393Z,5.70
2018-02-22T10:05:36.962Z,5.30
2018-02-22T10:06:37.538Z,5.70
2018-02-22T10:07:38.109Z,5.70
2018-02-22T10:08:38.679Z,5.30
2018-02-22T10:09:39.298Z,5.30
2018-02-22T10:10:39.871Z,5.60
2018-02-22T10:11:40.432Z,5.50
2018-02-22T10:12:41.000Z,5.80
2018-02-22T10:13:41.612Z,5.70
2018-02-22T10:14:42.231Z,5.60
2018-02-22T10:15:42.807Z,5.30
2018-02-22T10:16:43.390Z,5.80
2018-02-22T10:17:43.956Z,5.50
2018-02-22T10:18:44.520Z,5.60
2018-02-22T10:19:45.100Z,5.80
2018-02-22T10:20:45.670Z,5.80
2018-02-22T10:21:46.237Z,5.50
2018-02-22T10:22:46.822Z,5.30
2018-02-22T10:23:47.397Z,5.70
2018-02-22T10:24:47.983Z,5.30
2018-02-22T10:25:48.568Z,5.30
2018-02-22T10:26:49.150Z,5.60
2018-02-22T10:27:49.759Z,5.40
2018-02-22T10:28:50.328Z,5.60
2018-02-22T10:29:50.921Z,5.20
2018-02-22T10:30:51.497Z,5.50
2018-02-22T10:31:52.094Z,5.30
2018-02-22T10:32:52.729Z,5.50
2018-02-22T10:33:53.302Z,5.40
2018-02-22T10:34:53.875Z,5.60
2018-02-22T10:35:54.443Z,5.30
2018-02-22T10:36:55.024Z,5.20
2018-02-22T10:37:55.593Z,5.20
2018-02-22T10:38:56.169Z,5.80
2018-02-22T10:39:56.724Z,5.40
2018-02-22T10:40:57.300Z,5.60
2018-02-22T10:41:57.875Z,5.30
2018-02-22T10:42:58.472Z,5.40
2018-02-22T10:43:59.048Z,5.00
2018-02-22T10:44:59.617Z,5.50
2018-02-22T10:46:00.197Z,5.30
2018-02-22T10:47:00.783Z,5.50
2018-02-22T10:48:01.365Z,5.60
2018-02-22T10:49:01.946Z,5.30
2018-02-22T10:50:02.536Z,5.60
2018-02-22T10:51:03.115Z,5.60
2018-02-22T10:52:03.700Z,5.40
2018-02-22T10:53:04.255Z,5.40
2018-02-22T10:54:04.816Z,5.30
2018-02-22T10:55:05.436Z,5.80
2018-02-22T10:56:06.025Z,5.20
2018-02-22T10:57:06.658Z,4.90
2018-02-22T10:58:07.238Z,5.30
2018-02-22T10:59:07.821Z,5.40
2018-02-22T11:00:08.412Z,5.50
2018-02-22T11:01:08.991Z,5.20
2018-02-22T11:02:09.578Z,5.70
2018-02-22T11:03:10.157Z,5.20
2018-02-22T11:04:10.740Z,5.60
2018-02-22T11:05:11.325Z,5.20
2018-02-22T11:06:11.952Z,5.30
2018-02-22T11:07:12.523Z,5.30
2018-02-22T11:08:13.130Z,5.40
2018-02-22T11:09:13.699Z,5.40
2018-02-22T11:10:14.432Z,5.20
2018-02-22T11:11:15.029Z,5.70
2018-02-22T11:12:15.613Z,5.50
2018-02-22T11:13:16.216Z,5.50
2018-02-22T11:14:16.783Z,5.30
2018-02-22T11:15:17.361Z,5.50
2018-02-22T11:16:17.992Z,5.30
2018-02-22T11:17:18.573Z,5.10
2018-02-22T11:18:19.147Z,5.40
2018-02-22T11:19:19.724Z,5.10
2018-02-22T11:20:20.315Z,5.20
2018-02-22T11:21:20.897Z,5.40
2018-02-22T11:22:21.458Z,5.20
2018-02-22T11:23:22.033Z,5.50
2018-02-22T11:24:22.649Z,4.90
2018-02-22T11:25:23.329Z,5.20
2018-02-22T11:26:23.894Z,5.40
2018-02-22T11:27:24.467Z,5.30
2018-02-22T11:28:25.044Z,5.20
2018-02-22T11:29:25.850Z,4.90
2018-02-22T11:30:26.427Z,5.50
2018-02-22T11:31:26.998Z,5.40
2018-02-22T11:32:27.574Z,5.00
2018-02-22T11:33:28.203Z,5.50
2018-02-22T11:34:28.820Z,5.10
2018-02-22T11:35:29.400Z,5.00
2018-02-22T11:36:29.980Z,4.90
2018-02-22T11:37:30.561Z,4.80
2018-02-22T11:38:31.147Z,5.10
2018-02-22T11:39:31.730Z,5.50
2018-02-22T11:40:32.323Z,5.50
2018-02-22T11:41:32.905Z,5.10
2018-02-22T11:42:33.487Z,5.30
2018-02-22T11:43:34.071Z,4.90
2018-02-22T11:44:34.643Z,5.20
2018-02-22T11:45:35.237Z,5.20
2018-02-22T11:46:35.815Z,4.80
2018-02-22T11:47:36.395Z,5.00
2018-02-22T11:48:37.008Z,4.90
2018-02-22T11:49:37.708Z,5.20
2018-02-22T11:50:38.305Z,5.20
2018-02-22T11:51:38.887Z,5.20
2018-02-22T11:52:39.446Z,5.20
2018-02-22T11:53:40.059Z,4.80
2018-02-22T11:54:40.672Z,4.90
2018-02-22T11:55:41.238Z,5.00
2018-02-22T11:56:41.804Z,4.90
2018-02-22T11:57:42.382Z,4.80
2018-02-22T11:58:43.026Z,4.90
2018-02-22T11:59:43.604Z,5.10
2018-02-22T12:00:44.179Z,5.00
2018-02-22T12:01:44.747Z,4.90
2018-02-22T12:02:45.323Z,5.10
2018-02-22T12:03:45.905Z,4.80
2018-02-22T12:04:46.471Z,5.50
2018-02-22T12:05:47.049Z,4.70
2018-02-22T12:06:47.621Z,4.60
2018-02-22T12:07:48.191Z,4.30
2018-02-22T12:08:48.792Z,5.10
2018-02-22T12:09:49.380Z,4.90
2018-02-22T12:10:49.979Z,4.70
2018-02-22T12:11:50.544Z,4.90
2018-02-22T12:12:51.116Z,5.00
2018-02-22T12:13:51.690Z,4.70
2018-02-22T12:14:52.275Z,4.60
2018-02-22T12:15:52.861Z,4.90
2018-02-22T12:16:53.422Z,4.80
2018-02-22T12:17:53.987Z,4.60
2018-02-22T12:18:54.557Z,4.70
2018-02-22T12:19:55.141Z,4.70
2018-02-22T12:20:55.729Z,5.00
2018-02-22T12:21:56.299Z,4.50
2018-02-22T12:22:56.879Z,4.40
2018-02-22T12:23:57.444Z,5.00
2018-02-22T12:24:58.027Z,4.70
2018-02-22T12:25:58.634Z,4.50
2018-02-22T12:26:59.208Z,4.30
2018-02-22T12:27:59.781Z,4.50
2018-02-22T12:29:00.346Z,4.50
2018-02-22T12:30:00.909Z,4.60
2018-02-22T12:31:01.495Z,4.60
2018-02-22T12:32:02.075Z,4.60
2018-02-22T12:33:02.651Z,4.50
2018-02-22T12:34:03.215Z,4.70
2018-02-22T12:35:03.799Z,4.30
2018-02-22T12:36:04.379Z,4.60
2018-02-22T12:37:04.971Z,4.90
2018-02-22T12:38:05.602Z,4.50
2018-02-22T12:39:06.187Z,4.70
2018-02-22T12:40:06.780Z,4.50
2018-02-22T12:41:07.387Z,4.70
2018-02-22T12:42:07.971Z,4.70
2018-02-22T12:43:08.539Z,4.60
2018-02-22T12:44:09.116Z,4.40
2018-02-22T12:45:09.711Z,4.40
2018-02-22T12:46:10.304Z,4.80
2018-02-22T12:47:10.892Z,4.60
2018-02-22T12:48:11.460Z,4.70
2018-02-22T12:49:12.041Z,4.60
2018-02-22T12:50:12.617Z,4.30
2018-02-22T12:51:13.201Z,4.50
2018-02-22T12:52:13.798Z,4.50
2018-02-22T12:53:14.385Z,4.60
2018-02-22T12:54:14.960Z,4.60
2018-02-22T12:55:15.541Z,4.60
2018-02-22T12:56:16.118Z,4.20
2018-02-22T12:57:16.761Z,4.40
2018-02-22T12:58:17.334Z,4.60
2018-02-22T12:59:17.896Z,4.30
2018-02-22T13:00:18.483Z,4.20
2018-02-22T13:01:19.063Z,4.20
2018-02-22T13:02:19.653Z,4.20
2018-02-22T13:03:20.232Z,4.60
2018-02-22T13:04:20.869Z,4.10
2018-02-22T13:05:21.460Z,4.00
2018-02-22T13:06:22.057Z,4.10
2018-02-22T13:07:22.627Z,4.30
2018-02-22T13:08:23.206Z,4.30
2018-02-22T13:09:23.772Z,4.10
2018-02-22T13:10:24.348Z,4.40
2018-02-22T13:11:24.932Z,4.40
2018-02-22T13:12:25.508Z,4.30
2018-02-22T13:13:26.081Z,4.20
2018-02-22T13:14:26.670Z,4.30
2018-02-22T13:15:27.243Z,3.70
2018-02-22T13:16:27.821Z,4.30
2018-02-22T13:17:28.402Z,4.10
2018-02-22T13:18:28.975Z,4.20
2018-02-22T13:19:29.582Z,4.10
2018-02-22T13:20:30.158Z,4.20
2018-02-22T13:21:30.774Z,4.00
2018-02-22T13:22:31.344Z,4.00
2018-02-22T13:23:31.918Z,3.90
2018-02-22T13:24:32.488Z,3.70
2018-02-22T13:25:33.074Z,4.30
2018-02-22T13:26:33.728Z,4.00